Time;durP1;ratioP1;P1;durP2;ratioP2;P2;SDS_P1;SDS_P2;PMS_P1;PMS_P2;Temp;Humidity;BMP_temperature;BMP_pressure;BME280_temperature;BME280_humidity;BME280_pressure;Samples;Min_cycle;Max_cycle;Signal;HPM_P1;HPM_P2
2023/10/18 00:02:46;;;;;;;11.57;6.95;;;3.50;99.90;;;;;;5076110;28;20491;-20
2023/10/18 00:05:12;;;;;;;11.67;6.70;;;3.60;99.90;;;;;;5077007;28;20041;-20
2023/10/18 00:07:39;;;;;;;13.47;7.70;;;3.60;99.90;;;;;;5076972;28;20048;-20
2023/10/18 00:10:05;;;;;;;11.63;7.27;;;3.60;99.90;;;;;;5077775;28;20044;-20
2023/10/18 00:12:34;;;;;;;11.77;6.53;;;3.60;99.90;;;;;;5077514;28;20052;-20
2023/10/18 00:14:59;;;;;;;9.33;7.00;;;3.60;99.90;;;;;;5076896;28;20055;-21
2023/10/18 00:17:26;;;;;;;16.90;7.60;;;3.60;99.90;;;;;;5077588;28;20049;-21
2023/10/18 00:19:52;;;;;;;13.40;7.13;;;3.60;99.90;;;;;;5077533;28;20048;-21
2023/10/18 00:22:18;;;;;;;12.10;6.60;;;3.70;99.90;;;;;;5075784;28;20074;-21
2023/10/18 00:24:44;;;;;;;16.90;7.27;;;3.70;99.90;;;;;;5075655;28;20045;-20
2023/10/18 00:27:10;;;;;;;14.57;8.03;;;3.80;99.90;;;;;;5076643;28;20048;-21
2023/10/18 00:29:36;;;;;;;12.07;6.83;;;3.80;99.90;;;;;;5075638;28;20044;-21
2023/10/18 00:32:04;;;;;;;12.80;6.57;;;3.80;99.90;;;;;;5076547;28;20556;-20
2023/10/18 00:34:32;;;;;;;16.70;7.63;;;3.70;99.90;;;;;;5076532;28;20056;-20
2023/10/18 00:36:59;;;;;;;12.77;7.63;;;3.80;99.90;;;;;;5077244;28;20051;-21
2023/10/18 00:39:27;;;;;;;10.77;7.05;;;3.80;99.90;;;;;;5076923;28;20044;-20
2023/10/18 00:41:54;;;;;;;10.33;6.40;;;3.80;99.90;;;;;;5076346;28;20131;-20
2023/10/18 00:44:22;;;;;;;11.47;7.27;;;3.80;99.90;;;;;;5075980;28;20503;-20
2023/10/18 00:46:55;;;;;;;12.27;7.33;;;3.70;99.90;;;;;;5074985;28;20044;-21
2023/10/18 00:49:21;;;;;;;14.20;7.97;;;3.70;99.90;;;;;;5076143;28;20109;-20
2023/10/18 00:51:49;;;;;;;14.00;7.83;;;3.70;99.90;;;;;;5076183;28;20040;-21
2023/10/18 00:54:15;;;;;;;18.33;9.60;;;3.70;99.90;;;;;;5075463;28;20057;-20
2023/10/18 00:56:46;;;;;;;11.90;8.03;;;3.60;99.90;;;;;;5076060;28;20055;-20
2023/10/18 00:59:21;;;;;;;11.40;7.87;;;3.60;99.90;;;;;;5076438;28;20036;-20
2023/10/18 01:01:56;;;;;;;14.83;8.80;;;3.60;99.90;;;;;;5076449;28;20048;-21
2023/10/18 01:04:24;;;;;;;15.65;8.65;;;3.60;99.90;;;;;;5075306;28;20094;-20
2023/10/18 01:06:50;;;;;;;18.53;9.57;;;3.60;99.90;;;;;;5074722;28;20479;-20
2023/10/18 01:09:20;;;;;;;17.87;9.80;;;3.60;99.90;;;;;;5074677;28;20045;-21
2023/10/18 01:11:46;;;;;;;17.65;10.52;;;3.60;99.90;;;;;;5075799;28;20056;-20
2023/10/18 01:14:17;;;;;;;19.37;10.73;;;3.60;99.90;;;;;;5076595;28;20063;-20
2023/10/18 01:16:44;;;;;;;16.87;10.83;;;3.50;99.90;;;;;;5074661;28;20053;-20
2023/10/18 01:19:14;;;;;;;19.00;10.83;;;3.50;99.90;;;;;;5076133;28;20051;-20
2023/10/18 01:21:45;;;;;;;17.07;10.97;;;3.50;99.90;;;;;;5075605;28;20487;-20
2023/10/18 01:24:14;;;;;;;18.40;10.60;;;3.50;99.90;;;;;;5076268;28;20087;-21
2023/10/18 01:26:40;;;;;;;16.77;10.53;;;3.40;99.90;;;;;;5074863;28;20048;-20
2023/10/18 01:29:09;;;;;;;17.63;11.10;;;3.40;99.90;;;;;;5075471;28;20082;-20
2023/10/18 01:31:37;;;;;;;22.90;11.93;;;3.30;99.90;;;;;;5074350;28;20060;-20
2023/10/18 01:34:05;;;;;;;21.57;11.93;;;3.30;99.90;;;;;;5076231;28;20052;-21
2023/10/18 01:36:38;;;;;;;21.63;12.40;;;3.30;99.90;;;;;;5075020;28;20490;-21
2023/10/18 01:39:52;;;;;;;23.33;13.15;;;3.20;99.90;;;;;;5075348;28;20053;-20
2023/10/18 01:41:54;;;;;;;20.53;12.47;;;3.10;99.90;;;;;;5067465;28;20490;-20
2023/10/18 01:44:33;;;;;;;24.17;12.83;;;3.10;99.90;;;;;;5075027;28;20075;-21
2023/10/18 01:47:12;;;;;;;27.93;12.80;;;3.10;99.90;;;;;;5075051;28;20052;-20
2023/10/18 01:49:43;;;;;;;24.47;12.97;;;3.10;99.90;;;;;;5075153;28;20044;-20
2023/10/18 01:52:17;;;;;;;25.20;13.50;;;3.00;99.90;;;;;;5074787;28;20516;-20
2023/10/18 01:54:43;;;;;;;20.77;12.45;;;3.00;99.90;;;;;;5075317;28;20084;-20
2023/10/18 01:57:11;;;;;;;21.83;13.18;;;2.90;99.90;;;;;;5075744;28;20048;-20
2023/10/18 01:59:39;;;;;;;27.23;14.27;;;2.90;99.90;;;;;;5074697;28;20061;-21
2023/10/18 02:02:10;;;;;;;27.83;15.45;;;2.80;99.90;;;;;;5074784;28;20063;-20
2023/10/18 02:04:44;;;;;;;24.55;14.75;;;2.80;99.90;;;;;;5075107;28;20056;-20
2023/10/18 02:07:10;;;;;;;26.33;15.27;;;2.80;99.90;;;;;;5075307;28;20410;-20
2023/10/18 02:09:36;;;;;;;29.27;16.23;;;2.80;99.90;;;;;;5074513;28;20052;-20
2023/10/18 02:12:07;;;;;;;28.87;15.63;;;2.80;99.90;;;;;;5073499;28;20047;-21
2023/10/18 02:14:33;;;;;;;38.22;16.40;;;2.80;99.90;;;;;;5074562;28;20486;-21
2023/10/18 02:17:09;;;;;;;29.90;16.63;;;2.80;99.90;;;;;;5074507;28;20056;-20
2023/10/18 02:19:37;;;;;;;34.10;17.20;;;2.70;99.90;;;;;;5073916;28;20441;-20
2023/10/18 02:22:07;;;;;;;31.83;18.42;;;3.20;99.90;;;;;;5074710;28;20495;-20
2023/10/18 02:24:34;;;;;;;32.53;17.20;;;2.90;99.90;;;;;;5074711;28;20445;-21
2023/10/18 02:27:00;;;;;;;29.80;19.10;;;2.80;99.90;;;;;;5074369;28;20091;-20
2023/10/18 02:29:34;;;;;;;34.58;19.25;;;2.90;99.90;;;;;;5073330;28;20052;-20
2023/10/18 02:32:04;;;;;;;38.35;20.15;;;2.90;99.90;;;;;;5073935;28;20410;-21
2023/10/18 02:34:33;;;;;;;32.67;19.13;;;3.00;99.90;;;;;;5073082;28;20448;-20
2023/10/18 02:37:01;;;;;;;33.88;20.08;;;2.90;99.90;;;;;;5074127;28;20127;-21
2023/10/18 02:39:33;;;;;;;35.33;19.77;;;3.00;99.90;;;;;;5074851;28;20144;-20
2023/10/18 02:41:59;;;;;;;41.30;20.98;;;3.30;99.90;;;;;;5074444;28;20437;-20
2023/10/18 02:44:28;;;;;;;37.83;20.90;;;3.00;99.90;;;;;;5074005;28;20051;-20
2023/10/18 02:46:58;;;;;;;34.65;20.92;;;3.10;99.90;;;;;;5074277;28;20071;-20
2023/10/18 02:49:27;;;;;;;33.53;20.70;;;3.10;99.90;;;;;;5074019;28;20502;-20
2023/10/18 02:51:53;;;;;;;40.40;22.07;;;3.20;99.90;;;;;;5074528;28;20053;-21
2023/10/18 02:54:23;;;;;;;38.60;20.75;;;3.20;99.90;;;;;;5072626;28;20048;-20
2023/10/18 02:56:53;;;;;;;36.67;20.70;;;3.20;99.90;;;;;;5073904;28;20121;-21
2023/10/18 02:59:29;;;;;;;35.88;20.60;;;3.30;99.90;;;;;;5073542;28;20084;-20
2023/10/18 03:01:55;;;;;;;38.87;21.33;;;3.30;99.90;;;;;;5073955;28;20053;-20
2023/10/18 03:04:23;;;;;;;35.93;20.10;;;3.20;99.90;;;;;;5073786;28;20083;-20
2023/10/18 03:06:55;;;;;;;35.67;21.42;;;3.30;99.90;;;;;;5072885;28;20045;-20
2023/10/18 03:09:38;;;;;;;30.42;20.15;;;3.30;99.90;;;;;;5073800;28;20044;-21
2023/10/18 03:12:13;;;;;;;38.58;21.08;;;3.20;99.90;;;;;;5074558;28;20048;-21
2023/10/18 03:14:54;;;;;;;35.40;20.33;;;3.30;99.90;;;;;;5073034;28;20059;-20
2023/10/18 03:17:23;;;;;;;35.05;19.60;;;3.20;99.90;;;;;;5073942;28;20044;-20
2023/10/18 03:19:56;;;;;;;35.00;19.88;;;3.30;99.90;;;;;;5073498;28;20155;-20
2023/10/18 03:22:29;;;;;;;33.05;18.77;;;3.20;99.90;;;;;;5073669;28;20056;-21
2023/10/18 03:24:55;;;;;;;33.03;19.73;;;3.20;99.90;;;;;;5074159;28;20059;-21
2023/10/18 03:27:25;;;;;;;28.10;18.58;;;3.20;99.90;;;;;;5073234;28;20052;-21
2023/10/18 03:29:58;;;;;;;30.02;19.45;;;3.30;99.90;;;;;;5072823;28;20429;-20
2023/10/18 03:32:24;;;;;;;29.13;17.88;;;3.30;99.90;;;;;;5073596;28;20048;-20
2023/10/18 03:34:52;;;;;;;29.60;17.88;;;3.30;99.90;;;;;;5074031;28;20056;-20
2023/10/18 03:37:24;;;;;;;32.83;18.80;;;3.20;99.90;;;;;;5073436;28;20053;-21
2023/10/18 03:39:53;;;;;;;32.38;18.73;;;3.20;99.90;;;;;;5073691;28;20094;-21
2023/10/18 03:42:31;;;;;;;31.17;18.58;;;3.30;99.90;;;;;;5073450;28;20048;-20
2023/10/18 03:45:10;;;;;;;32.83;18.25;;;3.10;99.90;;;;;;5074027;28;20401;-20
2023/10/18 03:47:37;;;;;;;31.13;19.38;;;3.10;99.90;;;;;;5073409;28;20087;-21
2023/10/18 03:50:08;;;;;;;40.20;19.45;;;3.10;99.90;;;;;;5073362;28;20099;-20
2023/10/18 03:52:34;;;;;;;27.60;17.73;;;3.10;99.90;;;;;;5073969;28;20047;-20
2023/10/18 03:55:11;;;;;;;26.73;17.67;;;3.20;99.90;;;;;;5073325;28;20135;-20
2023/10/18 03:57:39;;;;;;;30.48;18.05;;;3.00;99.90;;;;;;5073580;28;20048;-21
2023/10/18 04:02:59;;;;;;;29.63;18.02;;;3.10;99.90;;;;;;5073242;28;20055;-20
2023/10/18 04:08:07;;;;;;;30.73;18.45;;;3.00;99.90;;;;;;5072755;28;20494;-21
2023/10/18 04:10:36;;;;;;;29.05;17.70;;;2.90;99.90;;;;;;5072127;28;20048;-20
2023/10/18 04:13:11;;;;;;;25.70;16.80;;;2.90;99.90;;;;;;5072845;28;20053;-20
2023/10/18 04:15:41;;;;;;;30.33;17.33;;;3.00;99.90;;;;;;5073393;28;20474;-21
2023/10/18 04:20:37;;;;;;;33.40;18.75;;;2.80;99.90;;;;;;5076681;28;20045;-20
2023/10/18 04:23:12;;;;;;;31.73;18.38;;;2.90;99.90;;;;;;5059121;28;20177;-21
2023/10/18 04:25:42;;;;;;;30.80;18.15;;;2.90;99.90;;;;;;5076984;28;20049;-20
2023/10/18 04:28:09;;;;;;;34.00;20.02;;;2.70;99.90;;;;;;5076575;28;20124;-20
2023/10/18 04:30:37;;;;;;;30.95;18.77;;;2.80;99.90;;;;;;5076311;28;20542;-20
2023/10/18 04:35:45;;;;;;;32.60;19.77;;;2.80;99.90;;;;;;5076489;28;20144;-20
2023/10/18 04:41:11;;;;;;;38.10;20.48;;;2.70;99.90;;;;;;5042154;28;20049;-21
2023/10/18 04:43:37;;;;;;;34.47;21.60;;;2.90;99.90;;;;;;5076612;28;20375;-20
2023/10/18 04:46:14;;;;;;;39.80;23.27;;;3.00;99.90;;;;;;5076358;28;20053;-20
2023/10/18 04:48:59;;;;;;;39.75;22.85;;;3.00;99.90;;;;;;5076588;28;20114;-21
2023/10/18 04:54:08;;;;;;;40.05;21.27;;;2.90;99.90;;;;;;5076503;28;20052;-21
2023/10/18 04:56:38;;;;;;;42.45;23.23;;;3.00;99.90;;;;;;5076465;28;20394;-21
2023/10/18 05:01:56;;;;;;;42.38;24.63;;;3.00;99.90;;;;;;5075817;28;20091;-21
2023/10/18 05:04:28;;;;;;;43.30;24.63;;;2.90;99.90;;;;;;5074995;28;20127;-20
2023/10/18 05:06:55;;;;;;;41.43;25.03;;;3.10;99.90;;;;;;5076330;28;20419;-21
2023/10/18 05:09:34;;;;;;;40.97;24.57;;;3.10;99.90;;;;;;5076169;28;20270;-21
2023/10/18 05:12:16;;;;;;;44.38;27.40;;;3.10;99.90;;;;;;5076124;28;20052;-21
2023/10/18 05:14:42;;;;;;;40.50;25.27;;;3.20;99.90;;;;;;5075855;28;20495;-21
2023/10/18 05:17:17;;;;;;;44.63;25.77;;;3.30;99.90;;;;;;5075726;28;20051;-20
2023/10/18 05:19:47;;;;;;;47.22;26.13;;;3.10;99.90;;;;;;5076450;28;20069;-21
2023/10/18 05:22:20;;;;;;;48.05;26.65;;;3.30;99.90;;;;;;5074711;28;20083;-21
2023/10/18 05:27:47;;;;;;;45.65;25.63;;;3.20;99.90;;;;;;5076396;28;20127;-21
2023/10/18 05:30:16;;;;;;;48.08;26.85;;;3.10;99.90;;;;;;5075438;28;20043;-21
2023/10/18 05:33:03;;;;;;;45.03;27.17;;;3.20;99.90;;;;;;5074785;28;20084;-21
2023/10/18 05:35:35;;;;;;;42.35;24.30;;;3.30;99.90;;;;;;5075439;28;20052;-21
2023/10/18 05:38:19;;;;;;;43.20;24.47;;;3.30;99.90;;;;;;5076043;28;20044;-21
2023/10/18 05:40:56;;;;;;;42.20;25.02;;;3.20;99.90;;;;;;5074990;28;20126;-21
2023/10/18 05:43:22;;;;;;;46.10;26.13;;;3.20;99.90;;;;;;5075275;28;20131;-21
2023/10/18 05:45:49;;;;;;;40.50;24.60;;;3.10;99.90;;;;;;5075806;28;20093;-21
2023/10/18 05:48:22;;;;;;;42.65;25.20;;;3.00;99.90;;;;;;5075140;28;20058;-21
2023/10/18 05:50:49;;;;;;;45.50;25.35;;;3.10;99.90;;;;;;5075730;28;20441;-20
2023/10/18 05:53:18;;;;;;;45.17;25.05;;;3.20;99.90;;;;;;5074123;28;20479;-21
2023/10/18 05:55:53;;;;;;;46.63;24.88;;;3.00;99.90;;;;;;5074977;28;20051;-21
2023/10/18 05:58:25;;;;;;;48.88;26.15;;;3.00;99.90;;;;;;5075466;28;20090;-21
2023/10/18 06:01:02;;;;;;;44.55;25.95;;;3.00;99.90;;;;;;5075042;28;20056;-20
2023/10/18 06:03:39;;;;;;;44.05;25.75;;;3.00;99.90;;;;;;5074841;28;20059;-20
2023/10/18 06:06:08;;;;;;;44.60;25.90;;;3.20;99.90;;;;;;5075657;28;20079;-20
2023/10/18 06:08:34;;;;;;;49.47;27.20;;;3.00;99.90;;;;;;5074718;28;20128;-20
2023/10/18 06:11:06;;;;;;;46.13;26.90;;;3.00;99.90;;;;;;5074656;28;20094;-21
2023/10/18 06:13:35;;;;;;;45.95;26.98;;;3.10;99.90;;;;;;5074671;28;20055;-20
2023/10/18 06:16:18;;;;;;;45.80;26.38;;;2.90;99.90;;;;;;5073379;28;20052;-20
2023/10/18 06:18:50;;;;;;;46.05;26.20;;;3.10;99.90;;;;;;5074878;28;20094;-21
2023/10/18 06:21:19;;;;;;;47.80;27.27;;;2.90;99.90;;;;;;5074501;28;20478;-21
2023/10/18 06:23:54;;;;;;;48.35;27.02;;;3.20;99.90;;;;;;5074443;28;20049;-20
2023/10/18 06:26:30;;;;;;;50.88;27.25;;;3.00;99.90;;;;;;5075204;28;20084;-21
2023/10/18 06:29:12;;;;;;;49.28;26.95;;;3.20;99.90;;;;;;5074360;28;20139;-21
2023/10/18 06:31:43;;;;;;;48.50;25.77;;;3.10;99.90;;;;;;5075163;28;20390;-20
2023/10/18 06:34:17;;;;;;;48.95;26.98;;;3.30;99.90;;;;;;5074560;28;20068;-20
2023/10/18 06:36:44;;;;;;;44.92;26.67;;;3.30;99.90;;;;;;5074113;28;20059;-20
2023/10/18 06:39:24;;;;;;;42.63;26.30;;;3.40;99.90;;;;;;5074309;28;20067;-20
2023/10/18 06:41:55;;;;;;;48.45;28.42;;;3.40;99.90;;;;;;5074006;28;20056;-21
2023/10/18 06:44:27;;;;;;;45.55;27.52;;;3.20;99.90;;;;;;5074014;28;20083;-21
2023/10/18 06:46:53;;;;;;;47.72;27.75;;;3.30;99.90;;;;;;5075296;28;20382;-20
2023/10/18 06:49:19;;;;;;;45.67;27.50;;;3.50;99.90;;;;;;5074007;28;20529;-21
2023/10/18 06:51:50;;;;;;;40.10;25.77;;;3.50;99.90;;;;;;5073941;28;20052;-21
2023/10/18 06:54:28;;;;;;;48.40;27.52;;;3.60;99.90;;;;;;5073996;28;20052;-21
2023/10/18 06:56:54;;;;;;;45.20;26.25;;;3.60;99.90;;;;;;5073913;28;20060;-21
2023/10/18 06:59:27;;;;;;;42.95;24.98;;;3.70;99.90;;;;;;5074614;28;20048;-21
2023/10/18 07:02:03;;;;;;;38.15;24.73;;;3.80;99.90;;;;;;5073674;28;20064;-20
2023/10/18 07:04:35;;;;;;;37.35;23.95;;;4.30;99.90;;;;;;5074695;28;20071;-20
2023/10/18 07:07:10;;;;;;;32.88;22.75;;;3.90;99.90;;;;;;5074103;28;20048;-21
2023/10/18 07:09:36;;;;;;;39.50;23.95;;;4.10;99.90;;;;;;5074385;28;20446;-20
2023/10/18 07:12:10;;;;;;;40.75;24.23;;;4.10;99.90;;;;;;5073793;28;20044;-20
2023/10/18 07:14:41;;;;;;;39.03;23.08;;;4.20;99.90;;;;;;5057316;28;20498;-21
2023/10/18 07:17:09;;;;;;;37.00;23.40;;;4.30;99.90;;;;;;5074517;28;20119;-21
2023/10/18 07:19:47;;;;;;;31.77;21.42;;;4.30;99.90;;;;;;5073848;28;20045;-21
2023/10/18 07:22:21;;;;;;;37.58;24.65;;;4.50;99.90;;;;;;5073647;28;20051;-20
2023/10/18 07:24:59;;;;;;;33.80;22.00;;;4.50;99.90;;;;;;5072693;28;20074;-21
2023/10/18 07:27:29;;;;;;;39.78;23.00;;;4.60;99.90;;;;;;5073437;28;20486;-20
2023/10/18 07:30:01;;;;;;;32.20;21.55;;;4.70;99.90;;;;;;5073917;28;20037;-21
2023/10/18 07:32:28;;;;;;;31.30;19.33;;;4.80;99.90;;;;;;5073482;28;20091;-21
2023/10/18 07:34:56;;;;;;;29.70;19.35;;;4.80;99.90;;;;;;5072520;28;20056;-21
2023/10/18 07:37:32;;;;;;;31.65;18.95;;;4.90;99.90;;;;;;5073723;28;20491;-20
2023/10/18 07:39:59;;;;;;;26.75;17.77;;;5.00;99.90;;;;;;5072687;28;20048;-21
2023/10/18 07:42:34;;;;;;;29.25;18.92;;;5.10;99.90;;;;;;5073426;28;20091;-21
2023/10/18 07:45:03;;;;;;;28.20;17.90;;;5.20;99.90;;;;;;5072466;28;20486;-20
2023/10/18 07:47:32;;;;;;;25.35;17.35;;;5.30;99.90;;;;;;5072819;28;20052;-21
2023/10/18 07:50:00;;;;;;;23.95;17.20;;;5.40;99.90;;;;;;5073882;28;20083;-21
2023/10/18 07:52:26;;;;;;;26.10;16.65;;;5.60;99.90;;;;;;5074147;28;20143;-21
2023/10/18 07:54:52;;;;;;;27.15;17.35;;;5.60;99.90;;;;;;5077612;28;20048;-20
2023/10/18 07:57:29;;;;;;;24.70;16.85;;;5.70;99.90;;;;;;5059360;28;20110;-21
2023/10/18 08:00:21;;;;;;;23.15;15.80;;;5.90;99.90;;;;;;5077296;28;20467;-21
2023/10/18 08:02:43;;;;;;;22.95;16.10;;;5.90;99.90;;;;;;5077221;28;20049;-21
2023/10/18 08:05:09;;;;;;;23.58;15.85;;;6.10;99.90;;;;;;5077086;28;20094;-20
2023/10/18 08:07:36;;;;;;;21.42;15.65;;;6.20;99.90;;;;;;5077080;28;20434;-21
2023/10/18 08:10:08;;;;;;;21.30;14.75;;;6.20;99.90;;;;;;5075777;28;20080;-21
2023/10/18 08:12:33;;;;;;;20.67;14.65;;;6.30;99.90;;;;;;5076995;28;20048;-21
2023/10/18 08:15:00;;;;;;;23.02;15.18;;;6.40;99.90;;;;;;5076900;28;20081;-21
2023/10/18 08:17:30;;;;;;;20.55;14.30;;;6.50;99.90;;;;;;5076837;28;20080;-21
2023/10/18 08:19:58;;;;;;;21.17;14.20;;;6.60;99.90;;;;;;5076825;28;20099;-21
2023/10/18 08:22:26;;;;;;;20.33;14.23;;;6.70;99.90;;;;;;5077589;28;20045;-21
2023/10/18 08:24:52;;;;;;;19.02;13.82;;;6.70;99.90;;;;;;5075527;28;20048;-21
2023/10/18 08:27:18;;;;;;;19.23;12.45;;;6.80;99.90;;;;;;5076504;28;20044;-21
2023/10/18 08:29:47;;;;;;;20.98;13.52;;;6.90;99.90;;;;;;5075448;28;20056;-21
2023/10/18 08:32:16;;;;;;;19.92;13.05;;;6.90;99.90;;;;;;5076138;28;20390;-21
2023/10/18 08:34:43;;;;;;;16.55;12.77;;;7.00;99.90;;;;;;5076546;28;20486;-21
2023/10/18 08:37:13;;;;;;;18.65;13.35;;;7.10;99.90;;;;;;5076784;28;20067;-21
2023/10/18 08:39:55;;;;;;;19.13;12.63;;;7.10;99.90;;;;;;5076994;28;20372;-21
2023/10/18 08:42:39;;;;;;;19.02;12.43;;;7.30;99.90;;;;;;5059649;28;20052;-21
2023/10/18 08:45:07;;;;;;;;;;;7.30;99.90;;;;;;5076738;28;20048;-21
2023/10/18 08:47:46;;;;;;;20.73;12.68;;;7.40;99.90;;;;;;5076311;28;19920;-21
2023/10/18 08:50:13;;;;;;;19.67;12.05;;;7.50;99.90;;;;;;5076317;28;20123;-21
2023/10/18 08:52:47;;;;;;;17.63;12.45;;;7.50;99.90;;;;;;5076192;28;20052;-21
2023/10/18 08:55:22;;;;;;;16.20;12.20;;;7.60;99.90;;;;;;5076794;28;20121;-21
2023/10/18 08:57:55;;;;;;;17.38;12.50;;;7.60;99.90;;;;;;5076995;28;20044;-21
2023/10/18 09:02:52;;;;;;;18.67;12.35;;;7.70;99.90;;;;;;5076750;28;20052;-21
2023/10/18 09:05:27;;;;;;;19.45;12.75;;;7.80;99.90;;;;;;5075131;28;20044;-21
2023/10/18 09:07:54;;;;;;;17.67;12.27;;;7.90;99.90;;;;;;5075988;28;20487;-21
2023/10/18 09:10:55;;;;;;;17.48;11.98;;;7.90;99.90;;;;;;5074673;28;20468;-21
2023/10/18 09:18:16;;;;;;;14.65;11.15;;;8.30;99.90;;;;;;5075909;28;20044;-21
2023/10/18 09:20:43;;;;;;;14.40;10.60;;;8.30;99.90;;;;;;5075687;28;20043;-21
2023/10/18 09:23:20;;;;;;;15.85;11.10;;;8.50;99.90;;;;;;5076487;28;20071;-21
2023/10/18 09:25:49;;;;;;;14.85;10.75;;;8.50;99.90;;;;;;5075202;28;20110;-21
2023/10/18 09:28:25;;;;;;;14.23;10.40;;;8.60;99.90;;;;;;5074594;28;20047;-21
2023/10/18 09:31:00;;;;;;;16.15;10.82;;;8.80;99.90;;;;;;5076380;28;20058;-21
2023/10/18 09:33:33;;;;;;;14.20;10.35;;;8.90;38.50;;;;;;5058721;28;20067;-21
2023/10/18 09:36:02;;;;;;;11.65;8.90;;;9.10;1.00;;;;;;5075433;28;20516;-21
2023/10/18 09:38:39;;;;;;;11.40;9.18;;;9.30;99.90;;;;;;5074376;28;20500;-21
2023/10/18 09:41:05;;;;;;;13.63;9.27;;;9.30;99.90;;;;;;5075544;28;20378;-21
2023/10/18 09:43:40;;;;;;;14.15;9.30;;;9.40;99.90;;;;;;5075294;28;20098;-21
2023/10/18 09:46:10;;;;;;;12.85;9.18;;;9.60;99.90;;;;;;5075841;28;20185;-21
2023/10/18 09:48:41;;;;;;;11.52;8.77;;;9.80;99.90;;;;;;5058125;28;20252;-21
2023/10/18 09:51:08;;;;;;;12.23;8.85;;;9.90;99.90;;;;;;5075707;28;20127;-21
2023/10/18 09:53:42;;;;;;;11.98;8.23;;;10.10;99.90;;;;;;5057132;28;20080;-21
2023/10/18 09:56:12;;;;;;;11.15;7.95;;;10.30;1.00;;;;;;5075810;28;20048;-21
2023/10/18 09:58:43;;;;;;;13.82;8.52;;;10.50;99.90;;;;;;5074020;28;20051;-21
2023/10/18 10:01:26;;;;;;;9.88;8.02;;;10.50;99.90;;;;;;5074305;28;20059;-21
2023/10/18 10:03:56;;;;;;;12.85;8.77;;;10.70;1.00;;;;;;5074909;28;20048;-21
2023/10/18 10:06:24;;;;;;;10.57;8.50;;;10.90;99.90;;;;;;5056581;28;20051;-21
2023/10/18 10:08:55;;;;;;;11.52;7.75;;;10.90;99.90;;;;;;5073620;28;20036;-21
2023/10/18 10:11:29;;;;;;;14.20;9.05;;;11.00;99.90;;;;;;5075611;28;20123;-21
2023/10/18 10:13:58;;;;;;;12.98;8.35;;;11.00;99.20;;;;;;5075008;28;20040;-21
2023/10/18 10:16:27;;;;;;;10.35;8.00;;;11.20;99.90;;;;;;5074783;28;20513;-22
2023/10/18 10:18:54;;;;;;;11.57;8.18;;;11.20;99.90;;;;;;5074560;28;20087;-21
2023/10/18 10:21:21;;;;;;;12.52;8.75;;;11.30;99.90;;;;;;5074468;28;20036;-21
2023/10/18 10:23:58;;;;;;;10.52;8.13;;;11.40;99.90;;;;;;5074427;28;20149;-21
2023/10/18 10:26:28;;;;;;;12.27;8.52;;;11.40;99.90;;;;;;5075281;28;20044;-21
2023/10/18 10:32:04;;;;;;;10.98;8.30;;;11.50;99.90;;;;;;5073767;28;20538;-21
2023/10/18 10:34:36;;;;;;;9.98;7.20;;;11.70;99.90;;;;;;5074544;28;20390;-21
2023/10/18 10:37:23;;;;;;;8.55;7.15;;;11.80;99.90;;;;;;5075113;28;20114;-21
2023/10/18 10:39:49;;;;;;;9.98;7.10;;;12.10;1.00;;;;;;5074185;28;20040;-22
2023/10/18 10:42:46;;;;;;;11.48;6.75;;;12.20;1.00;;;;;;5074171;28;20063;-21
2023/10/18 10:45:38;;;;;;;9.45;6.63;;;12.30;1.00;;;;;;5074671;28;20052;-21
2023/10/18 10:51:16;;;;;;;8.20;6.55;;;12.40;99.90;;;;;;5074833;28;20045;-21
2023/10/18 10:53:44;;;;;;;9.98;7.18;;;12.70;6.20;;;;;;5074289;28;20080;-21
2023/10/18 10:56:17;;;;;;;11.30;7.22;;;12.80;99.90;;;;;;5073849;28;20486;-21
2023/10/18 10:58:47;;;;;;;10.00;7.40;;;12.70;1.00;;;;;;5073855;28;20067;-22
2023/10/18 11:01:13;;;;;;;9.10;6.70;;;12.70;99.90;;;;;;5056361;28;20521;-21
2023/10/18 11:03:54;;;;;;;12.95;7.35;;;12.40;99.90;;;;;;5073823;28;20049;-22
2023/10/18 11:06:24;;;;;;;13.20;7.25;;;12.30;1.00;;;;;;5074097;28;20052;-21
2023/10/18 11:08:53;;;;;;;10.98;7.45;;;12.10;1.00;;;;;;5073855;28;20045;-21
2023/10/18 11:11:27;;;;;;;12.13;7.03;;;12.10;99.90;;;;;;5073714;28;20052;-21
2023/10/18 11:13:53;;;;;;;9.75;6.65;;;12.00;1.00;;;;;;5057532;28;20059;-21
2023/10/18 11:16:22;;;;;;;13.88;8.00;;;12.00;1.00;;;;;;5073563;28;20044;-21
2023/10/18 11:18:49;;;;;;;11.60;6.30;;;11.90;99.90;;;;;;5074247;28;20044;-21
2023/10/18 11:21:21;;;;;;;8.52;6.60;;;11.80;99.90;;;;;;5072427;28;20101;-21
2023/10/18 11:24:10;;;;;;;9.27;7.30;;;11.80;1.00;;;;;;5073687;28;20078;-21
2023/10/18 11:26:40;;;;;;;10.70;6.70;;;11.90;1.00;;;;;;5073158;28;20048;-21
2023/10/18 11:29:07;;;;;;;10.73;6.82;;;12.10;1.00;;;;;;5073670;28;20190;-21
2023/10/18 11:31:44;;;;;;;10.18;7.50;;;12.10;1.00;;;;;;5074364;28;20040;-21
2023/10/18 11:34:14;;;;;;;8.90;6.97;;;12.00;1.00;;;;;;5072310;28;20093;-21
2023/10/18 11:36:41;;;;;;;9.32;6.78;;;11.90;99.90;;;;;;5072381;28;20049;-21
2023/10/18 11:41:44;;;;;;;9.77;6.95;;;11.70;99.90;;;;;;5073748;28;20173;-21
2023/10/18 11:44:16;;;;;;;10.75;6.38;;;11.80;1.00;;;;;;5073395;28;20048;-21
2023/10/18 11:46:46;;;;;;;8.27;6.22;;;11.80;1.00;;;;;;5072321;28;20052;-21
2023/10/18 11:49:14;;;;;;;10.05;6.15;;;12.00;99.90;;;;;;5073389;28;20052;-21
2023/10/18 11:51:45;;;;;;;8.13;6.25;;;12.00;1.00;;;;;;5073892;28;20058;-21
2023/10/18 11:54:25;;;;;;;7.85;5.65;;;12.00;99.90;;;;;;5055929;28;20059;-21
2023/10/18 11:56:51;;;;;;;7.50;5.88;;;11.90;99.90;;;;;;5073961;28;20059;-21
2023/10/18 11:59:18;;;;;;;7.38;5.85;;;11.90;99.90;;;;;;5073775;28;20135;-21
2023/10/18 12:01:45;;;;;;;11.80;6.13;;;11.80;99.90;;;;;;5074353;28;20506;-21
2023/10/18 12:04:15;;;;;;;8.40;6.22;;;11.90;99.90;;;;;;5072882;28;20486;-21
2023/10/18 12:06:42;;;;;;;13.25;6.70;;;12.00;99.90;;;;;;5073181;28;20052;-21
2023/10/18 12:09:25;;;;;;;8.60;5.68;;;12.10;99.90;;;;;;5073198;28;20106;-21
2023/10/18 12:11:52;;;;;;;8.63;5.90;;;12.20;99.90;;;;;;5073201;28;20044;-21
2023/10/18 12:14:18;;;;;;;8.77;6.35;;;12.30;99.90;;;;;;5073412;28;20063;-21
2023/10/18 12:16:44;;;;;;;7.38;6.00;;;12.40;99.90;;;;;;5073661;28;20048;-21
2023/10/18 12:19:10;;;;;;;7.40;6.00;;;12.50;99.90;;;;;;5073102;28;20052;-21
2023/10/18 12:21:37;;;;;;;8.52;6.13;;;12.70;99.90;;;;;;5071801;28;20052;-21
2023/10/18 12:24:07;;;;;;;8.05;6.13;;;12.80;99.90;;;;;;5073588;28;20051;-21
2023/10/18 12:26:34;;;;;;;10.90;6.28;;;13.00;73.20;;;;;;5073643;28;20429;-20
2023/10/18 12:29:06;;;;;;;8.98;5.88;;;13.10;7.00;;;;;;5073032;28;20068;-20
2023/10/18 12:31:38;;;;;;;9.37;6.00;;;13.30;77.70;;;;;;5073637;28;20048;-19
2023/10/18 12:34:04;;;;;;;8.80;5.65;;;13.40;83.10;;;;;;5072403;28;20045;-20
2023/10/18 12:36:49;;;;;;;8.95;5.68;;;13.40;1.00;;;;;;5072966;28;20063;-19
2023/10/18 12:39:22;;;;;;;7.32;5.93;;;13.40;1.00;;;;;;5074843;28;20048;-20
2023/10/18 12:41:55;;;;;;;7.80;6.20;;;13.10;1.00;;;;;;5077097;28;20063;-20
2023/10/18 12:44:25;;;;;;;7.47;5.57;;;13.10;1.00;;;;;;5076475;28;20051;-19
2023/10/18 12:46:54;;;;;;;10.23;6.72;;;13.00;1.00;;;;;;5076224;28;20047;-20
2023/10/18 12:49:23;;;;;;;8.63;5.78;;;12.90;1.00;;;;;;5076372;28;20140;-19
2023/10/18 12:51:59;;;;;;;10.00;5.75;;;12.90;1.00;;;;;;5075537;28;20047;-19
2023/10/18 12:54:36;;;;;;;8.63;5.65;;;12.80;1.00;;;;;;5075879;28;20052;-19
2023/10/18 12:57:17;;;;;;;8.55;6.07;;;12.80;85.50;;;;;;5076232;28;20049;-19
2023/10/18 13:00:00;;;;;;;8.77;6.30;;;12.80;99.90;;;;;;5076725;28;20052;-19
2023/10/18 13:03:32;;;;;;;12.80;6.00;;;12.70;99.90;;;;;;5076080;28;20059;-20
2023/10/18 13:05:22;;;;;;;9.82;6.30;;;12.70;99.90;;;;;;5062628;28;20450;-19
2023/10/18 13:07:54;;;;;;;9.02;6.50;;;12.80;99.90;;;;;;5075273;28;20155;-20
2023/10/18 13:10:29;;;;;;;9.95;5.97;;;12.70;99.90;;;;;;5075663;28;20103;-19
2023/10/18 13:12:56;;;;;;;9.90;5.97;;;12.60;99.90;;;;;;5076268;28;20124;-20
2023/10/18 13:15:22;;;;;;;8.50;5.70;;;12.40;99.90;;;;;;5076434;28;20044;-19
2023/10/18 13:17:48;;;;;;;8.68;6.10;;;12.30;99.90;;;;;;5076327;28;20135;-20
2023/10/18 13:20:15;;;;;;;12.85;5.70;;;12.30;99.90;;;;;;5057981;28;20049;-20
2023/10/18 13:22:44;;;;;;;7.97;5.68;;;12.20;99.90;;;;;;5075702;28;20483;-19
2023/10/18 13:25:25;;;;;;;7.22;5.38;;;12.20;99.90;;;;;;5075630;28;20500;-19
2023/10/18 13:28:04;;;;;;;9.05;5.70;;;12.10;99.90;;;;;;5074681;28;20067;-19
2023/10/18 13:30:39;;;;;;;7.70;5.93;;;12.10;99.90;;;;;;5076163;28;20051;-20
2023/10/18 13:33:14;;;;;;;10.52;7.63;;;12.00;99.90;;;;;;5076369;28;20382;-20
2023/10/18 13:35:40;;;;;;;13.40;7.22;;;12.00;1.00;;;;;;5076322;28;20137;-19
2023/10/18 13:38:06;;;;;;;11.07;6.32;;;11.90;1.00;;;;;;5075477;28;20115;-20
2023/10/18 13:40:36;;;;;;;7.75;5.53;;;11.90;1.00;;;;;;5076123;28;20047;-20